createdAt,value
2024-02-24T00:01:55.485Z,10.63
2024-02-24T00:04:22.940Z,16.05
2024-02-24T00:06:50.106Z,9.57
2024-02-24T00:09:17.215Z,12.98
2024-02-24T00:11:44.533Z,15.57
2024-02-24T00:14:11.802Z,11.15
2024-02-24T00:16:39.137Z,11.65
2024-02-24T00:19:07.136Z,14.75
2024-02-24T00:21:34.305Z,7.38
2024-02-24T00:24:01.986Z,15.15
2024-02-24T00:26:29.330Z,10.82
2024-02-24T00:28:56.474Z,11.48
2024-02-24T00:31:23.614Z,11.80
2024-02-24T00:33:50.808Z,10.27
2024-02-24T00:36:18.122Z,8.88
2024-02-24T00:38:45.267Z,9.07
2024-02-24T00:41:12.575Z,13.10
2024-02-24T00:43:39.767Z,6.93
2024-02-24T00:46:09.212Z,8.02
2024-02-24T00:48:36.349Z,8.60
2024-02-24T00:51:03.801Z,7.28
2024-02-24T00:53:30.988Z,13.70
2024-02-24T00:55:58.157Z,10.20
2024-02-24T00:58:25.254Z,12.40
2024-02-24T01:00:52.393Z,8.07
2024-02-24T01:03:19.633Z,9.02
2024-02-24T01:05:47.165Z,8.43
2024-02-24T01:08:14.553Z,9.30
2024-02-24T01:10:41.880Z,7.70
2024-02-24T01:13:09.076Z,11.18
2024-02-24T01:15:36.294Z,12.73
2024-02-24T01:18:03.874Z,12.52
2024-02-24T01:20:31.169Z,7.50
2024-02-24T01:23:01.607Z,8.05
2024-02-24T01:25:28.961Z,12.75
2024-02-24T01:27:56.048Z,15.43
2024-02-24T01:30:26.154Z,10.88
2024-02-24T01:32:53.598Z,7.20
2024-02-24T01:35:21.261Z,9.43
2024-02-24T01:37:48.448Z,8.35
2024-02-24T01:40:15.759Z,9.25
2024-02-24T01:42:45.352Z,13.75
2024-02-24T01:45:13.281Z,10.25
2024-02-24T01:47:40.788Z,11.55
2024-02-24T01:50:11.766Z,9.25
2024-02-24T01:52:42.199Z,13.32
2024-02-24T01:55:10.981Z,7.40
2024-02-24T01:57:44.481Z,15.80
2024-02-24T02:00:13.333Z,11.63
2024-02-24T02:02:41.848Z,7.63
2024-02-24T02:05:09.507Z,8.35
2024-02-24T02:07:37.187Z,13.02
2024-02-24T02:10:06.270Z,11.18
2024-02-24T02:12:35.849Z,10.10
2024-02-24T02:15:05.241Z,10.20
2024-02-24T02:17:32.870Z,7.32
2024-02-24T02:20:04.478Z,10.00
2024-02-24T02:22:33.233Z,11.00
2024-02-24T02:25:00.486Z,7.75
2024-02-24T02:27:27.594Z,7.63
2024-02-24T02:29:54.767Z,9.30
2024-02-24T02:32:22.105Z,7.63
2024-02-24T02:34:49.460Z,8.38
2024-02-24T02:37:16.621Z,7.57
2024-02-24T02:39:43.772Z,6.63
2024-02-24T02:42:11.486Z,7.43
2024-02-24T02:44:38.672Z,7.85
2024-02-24T02:47:11.394Z,7.28
2024-02-24T02:49:44.793Z,10.98
2024-02-24T02:52:12.047Z,8.63
2024-02-24T02:54:39.128Z,6.55
2024-02-24T02:57:06.329Z,7.75
2024-02-24T02:59:36.943Z,10.38
2024-02-24T03:02:04.341Z,7.85
2024-02-24T03:04:31.464Z,6.78
2024-02-24T03:06:58.946Z,6.75
2024-02-24T03:09:26.049Z,5.82
2024-02-24T03:11:53.598Z,4.68
2024-02-24T03:14:21.503Z,8.45
2024-02-24T03:16:50.357Z,8.65
2024-02-24T03:19:18.062Z,5.95
2024-02-24T03:21:45.195Z,8.18
2024-02-24T03:24:12.334Z,8.70
2024-02-24T03:26:40.801Z,9.57
2024-02-24T03:29:08.028Z,6.25
2024-02-24T03:31:35.159Z,12.32
2024-02-24T03:34:02.487Z,12.93
2024-02-24T03:36:29.760Z,10.98
2024-02-24T03:38:56.902Z,9.85
2024-02-24T03:41:24.186Z,13.48
2024-02-24T03:43:51.361Z,10.80
2024-02-24T03:46:18.677Z,11.88
2024-02-24T03:48:47.869Z,9.32
2024-02-24T03:51:15.281Z,8.07
2024-02-24T03:53:42.483Z,7.35
2024-02-24T03:56:09.641Z,6.45
2024-02-24T03:58:36.834Z,7.15
2024-02-24T04:01:04.301Z,7.22
2024-02-24T04:03:31.462Z,7.97
2024-02-24T04:05:58.785Z,9.65
2024-02-24T04:08:26.134Z,8.43
2024-02-24T04:10:53.341Z,12.57
2024-02-24T04:13:21.767Z,8.77
2024-02-24T04:15:49.700Z,9.90
2024-02-24T04:18:17.108Z,11.77
2024-02-24T04:20:48.697Z,11.48
2024-02-24T04:23:16.226Z,12.77
2024-02-24T04:25:43.368Z,10.98
2024-02-24T04:28:11.259Z,10.73
2024-02-24T04:30:39.266Z,11.50
2024-02-24T04:33:07.182Z,8.77
2024-02-24T04:35:34.859Z,8.45
2024-02-24T04:38:07.558Z,12.35
2024-02-24T04:40:37.898Z,3.63
2024-02-24T04:43:05.256Z,10.40
2024-02-24T04:45:32.916Z,8.98
2024-02-24T04:48:00.536Z,7.00
2024-02-24T04:50:28.086Z,8.70
2024-02-24T04:52:55.416Z,9.02
2024-02-24T04:55:22.587Z,11.45
2024-02-24T04:57:49.734Z,5.63
2024-02-24T05:00:17.187Z,8.43
2024-02-24T05:02:44.446Z,10.90
2024-02-24T05:05:13.786Z,5.32
2024-02-24T05:07:41.149Z,7.75
2024-02-24T05:10:09.191Z,9.40
2024-02-24T05:12:37.388Z,11.75
2024-02-24T05:15:04.802Z,10.02
2024-02-24T05:17:32.074Z,5.78
2024-02-24T05:19:59.300Z,8.57
2024-02-24T05:22:26.675Z,9.82
2024-02-24T05:24:53.926Z,10.45
2024-02-24T05:27:21.307Z,9.10
2024-02-24T05:29:49.280Z,8.50
2024-02-24T05:32:18.396Z,7.18
2024-02-24T05:34:45.961Z,7.07
2024-02-24T05:37:13.399Z,8.07
2024-02-24T05:39:40.561Z,6.32
2024-02-24T05:42:07.889Z,9.05
2024-02-24T05:44:35.334Z,7.07
2024-02-24T05:47:02.528Z,10.65
2024-02-24T05:49:29.795Z,5.03
2024-02-24T05:51:57.068Z,5.13
2024-02-24T05:54:24.564Z,11.00
2024-02-24T05:56:52.243Z,7.82
2024-02-24T05:59:20.433Z,6.38
2024-02-24T06:01:47.713Z,7.30
2024-02-24T06:04:17.517Z,10.13
2024-02-24T06:06:47.765Z,9.55
2024-02-24T06:09:15.032Z,10.35
2024-02-24T06:11:42.994Z,5.15
2024-02-24T06:14:10.252Z,9.57
2024-02-24T06:16:37.421Z,5.38
2024-02-24T06:19:04.655Z,8.10
2024-02-24T06:21:34.906Z,7.03
2024-02-24T06:24:02.085Z,5.35
2024-02-24T06:26:29.205Z,7.03
2024-02-24T06:28:57.388Z,6.07
2024-02-24T06:31:24.611Z,5.65
2024-02-24T06:33:51.851Z,6.28
2024-02-24T06:36:19.105Z,4.22
2024-02-24T06:38:46.396Z,7.45
2024-02-24T06:41:13.863Z,8.25
2024-02-24T06:43:41.030Z,6.88
2024-02-24T06:46:08.866Z,10.68
2024-02-24T06:48:36.055Z,11.25
2024-02-24T06:51:04.545Z,7.88
2024-02-24T06:53:31.789Z,7.55
2024-02-24T06:55:58.903Z,6.63
2024-02-24T06:58:26.018Z,10.35
2024-02-24T07:00:53.223Z,10.48
2024-02-24T07:03:20.515Z,12.88
2024-02-24T07:05:47.858Z,7.28
2024-02-24T07:08:15.016Z,13.40
2024-02-24T07:10:42.214Z,7.97
2024-02-24T07:13:09.506Z,6.18
2024-02-24T07:15:36.637Z,7.10
2024-02-24T07:18:04.123Z,8.88
2024-02-24T07:20:31.356Z,6.78
2024-02-24T07:22:58.578Z,11.40
2024-02-24T07:25:25.743Z,6.18
2024-02-24T07:27:52.913Z,6.50
2024-02-24T07:30:20.129Z,6.25
2024-02-24T07:32:47.871Z,6.50
2024-02-24T07:35:15.311Z,6.28
2024-02-24T07:37:42.462Z,4.60
2024-02-24T07:40:10.198Z,8.25
2024-02-24T07:42:37.382Z,10.23
2024-02-24T07:45:04.989Z,6.32
2024-02-24T07:47:32.254Z,7.28
2024-02-24T07:49:59.689Z,5.53
2024-02-24T07:52:27.100Z,9.80
2024-02-24T07:54:54.290Z,10.18
2024-02-24T07:57:21.460Z,11.45
2024-02-24T07:59:48.569Z,11.60
2024-02-24T08:02:15.805Z,8.77
2024-02-24T08:04:42.996Z,15.38
2024-02-24T08:07:10.156Z,11.20
2024-02-24T08:09:37.346Z,12.02
2024-02-24T08:12:05.351Z,10.95
2024-02-24T08:14:32.599Z,10.48
2024-02-24T08:16:59.775Z,12.52
2024-02-24T08:19:27.058Z,13.55
2024-02-24T08:21:54.177Z,13.43
2024-02-24T08:24:21.314Z,16.95
2024-02-24T08:26:49.859Z,17.90
2024-02-24T08:29:17.122Z,14.98
2024-02-24T08:31:44.278Z,16.92
2024-02-24T08:34:11.859Z,13.50
2024-02-24T08:36:39.450Z,16.60
2024-02-24T08:39:06.936Z,12.05
2024-02-24T08:41:35.095Z,17.98
2024-02-24T08:44:05.161Z,18.35
2024-02-24T08:46:32.897Z,15.63
2024-02-24T08:49:00.468Z,11.27
2024-02-24T08:51:28.702Z,15.77
2024-02-24T08:53:56.508Z,13.82
2024-02-24T08:56:24.893Z,18.95
2024-02-24T08:58:52.290Z,14.88
2024-02-24T09:01:22.763Z,18.25
2024-02-24T09:03:50.033Z,14.38
2024-02-24T09:06:17.565Z,12.50
2024-02-24T09:08:45.064Z,10.93
2024-02-24T09:11:13.029Z,17.85
2024-02-24T09:13:40.376Z,12.75
2024-02-24T09:16:07.914Z,12.05
2024-02-24T09:18:35.179Z,8.00
2024-02-24T09:21:02.568Z,15.63
2024-02-24T09:23:29.750Z,19.80
2024-02-24T09:25:57.125Z,19.08
2024-02-24T09:28:24.393Z,15.65
2024-02-24T09:30:53.003Z,15.07
2024-02-24T09:33:20.509Z,13.45
2024-02-24T09:35:47.870Z,11.95
2024-02-24T09:38:15.178Z,14.27
2024-02-24T09:40:42.634Z,8.57
2024-02-24T09:43:09.927Z,60.63
2024-02-24T09:45:43.412Z,16.08
2024-02-24T09:48:12.318Z,13.57
2024-02-24T09:50:40.147Z,10.52
2024-02-24T09:53:10.645Z,13.75
2024-02-24T09:55:40.481Z,10.77
2024-02-24T09:58:11.923Z,12.52
2024-02-24T10:00:39.311Z,19.75
2024-02-24T10:03:06.950Z,12.75
2024-02-24T10:05:37.906Z,15.98
2024-02-24T10:08:05.471Z,17.58
2024-02-24T10:10:33.317Z,16.98
2024-02-24T10:13:03.075Z,16.65
2024-02-24T10:15:30.708Z,15.85
2024-02-24T10:17:59.596Z,14.88
2024-02-24T10:20:27.516Z,13.52
2024-02-24T10:22:55.515Z,15.75
2024-02-24T10:25:23.095Z,13.05
2024-02-24T10:27:53.541Z,14.23
2024-02-24T10:30:24.237Z,13.05
2024-02-24T10:32:55.229Z,15.02
2024-02-24T10:35:23.286Z,18.23
2024-02-24T10:38:10.592Z,18.85
2024-02-24T10:40:44.262Z,18.83
2024-02-24T10:43:12.255Z,13.57
2024-02-24T10:45:39.608Z,13.75
2024-02-24T10:48:07.799Z,15.20
2024-02-24T10:50:36.386Z,16.30
2024-02-24T10:53:05.768Z,14.43
2024-02-24T10:55:34.517Z,11.90
2024-02-24T10:58:02.668Z,14.15
2024-02-24T11:00:32.958Z,11.57
2024-02-24T11:03:01.492Z,14.63
2024-02-24T11:05:32.771Z,19.85
2024-02-24T11:07:59.998Z,16.23
2024-02-24T11:10:34.970Z,17.13
2024-02-24T11:13:03.805Z,15.55
2024-02-24T11:15:31.196Z,14.20
2024-02-24T11:18:00.199Z,17.30
2024-02-24T11:20:39.987Z,14.65
2024-02-24T11:23:23.012Z,16.55
2024-02-24T11:26:10.646Z,19.15
2024-02-24T11:28:38.807Z,15.27
2024-02-24T11:31:06.317Z,14.70
2024-02-24T11:33:40.439Z,17.58
2024-02-24T11:36:08.316Z,11.15
2024-02-24T11:38:35.743Z,18.75
2024-02-24T11:41:06.840Z,11.98
2024-02-24T11:43:34.867Z,12.25
2024-02-24T11:46:05.393Z,10.02
2024-02-24T11:48:32.903Z,19.35
2024-02-24T11:51:00.716Z,17.33
2024-02-24T11:53:29.212Z,14.75
2024-02-24T11:55:56.604Z,20.13
2024-02-24T11:58:24.404Z,15.32
2024-02-24T12:00:51.643Z,9.27
2024-02-24T12:03:18.829Z,12.63
2024-02-24T12:05:46.917Z,14.38
2024-02-24T12:08:23.155Z,9.30
2024-02-24T12:10:51.271Z,13.40
2024-02-24T12:13:19.067Z,17.77
2024-02-24T12:15:51.773Z,21.25
2024-02-24T12:18:23.480Z,17.33
2024-02-24T12:20:50.760Z,15.68
2024-02-24T12:23:18.584Z,8.98
2024-02-24T12:25:47.101Z,12.45
2024-02-24T12:28:14.288Z,12.73
2024-02-24T12:30:43.174Z,13.38
2024-02-24T12:33:18.727Z,10.15
2024-02-24T12:35:49.320Z,9.48
2024-02-24T12:38:20.152Z,12.13
2024-02-24T12:40:47.755Z,14.00
2024-02-24T12:43:15.065Z,10.55
2024-02-24T12:45:42.200Z,7.95
2024-02-24T12:48:10.154Z,11.77
2024-02-24T12:50:37.462Z,11.43
2024-02-24T12:53:10.767Z,9.45
2024-02-24T12:55:37.950Z,10.98
2024-02-24T12:58:05.409Z,15.32
2024-02-24T13:00:32.618Z,11.38
2024-02-24T13:03:01.029Z,11.30
2024-02-24T13:05:28.769Z,8.18
2024-02-24T13:07:56.293Z,11.77
2024-02-24T13:10:23.763Z,14.77
2024-02-24T13:12:50.966Z,14.43
2024-02-24T13:15:18.318Z,13.00
2024-02-24T13:17:45.951Z,17.40
2024-02-24T13:20:13.107Z,18.17
2024-02-24T13:22:42.660Z,12.98
2024-02-24T13:25:13.294Z,14.00
2024-02-24T13:27:40.392Z,9.27
2024-02-24T13:30:08.205Z,13.07
2024-02-24T13:32:36.025Z,11.80
2024-02-24T13:35:03.430Z,13.13
2024-02-24T13:37:31.601Z,17.17
2024-02-24T13:39:58.854Z,12.40
2024-02-24T13:42:26.080Z,16.20
2024-02-24T13:44:53.364Z,20.35
2024-02-24T13:47:20.999Z,15.65
2024-02-24T13:49:48.178Z,17.85
2024-02-24T13:52:15.333Z,17.92
2024-02-24T13:54:42.591Z,19.85
2024-02-24T13:57:09.853Z,15.25
2024-02-24T13:59:37.128Z,12.85
2024-02-24T14:02:05.270Z,17.23
2024-02-24T14:04:32.601Z,15.23
2024-02-24T14:07:00.102Z,15.65
2024-02-24T14:09:27.296Z,15.00
2024-02-24T14:11:55.118Z,16.73
2024-02-24T14:14:22.492Z,20.83
2024-02-24T14:16:49.760Z,26.38
2024-02-24T14:19:20.033Z,18.08
2024-02-24T14:21:49.897Z,14.77
2024-02-24T14:24:17.065Z,18.05
2024-02-24T14:26:44.339Z,12.90
2024-02-24T14:29:11.708Z,15.98
2024-02-24T14:31:39.475Z,9.40
2024-02-24T14:34:06.868Z,11.50
2024-02-24T14:36:34.242Z,15.43
2024-02-24T14:39:01.568Z,9.30
2024-02-24T14:41:28.978Z,8.70
2024-02-24T14:43:56.321Z,6.55
2024-02-24T14:46:23.540Z,10.20
2024-02-24T14:48:52.378Z,15.30
2024-02-24T14:51:19.689Z,13.80
2024-02-24T14:53:48.658Z,13.38
2024-02-24T14:56:15.842Z,10.68
2024-02-24T14:58:43.010Z,8.82
2024-02-24T15:01:11.759Z,9.88
2024-02-24T15:03:43.342Z,12.73
2024-02-24T15:06:12.530Z,12.30
2024-02-24T15:08:39.822Z,15.48
2024-02-24T15:11:06.949Z,17.75
2024-02-24T15:13:36.632Z,14.75
2024-02-24T15:16:04.957Z,14.70
2024-02-24T15:18:32.319Z,9.80
2024-02-24T15:21:00.076Z,11.73
2024-02-24T15:23:27.538Z,8.68
2024-02-24T15:25:54.669Z,8.20
2024-02-24T15:28:22.603Z,17.73
2024-02-24T15:30:49.929Z,7.97
2024-02-24T15:33:17.492Z,11.27
2024-02-24T15:35:44.869Z,12.10
2024-02-24T15:38:12.089Z,18.30
2024-02-24T15:40:42.076Z,13.80
2024-02-24T15:43:10.039Z,19.17
2024-02-24T15:45:37.220Z,12.65
2024-02-24T15:48:04.849Z,14.80
2024-02-24T15:50:32.213Z,12.55
2024-02-24T15:52:59.318Z,12.02
2024-02-24T15:55:26.575Z,10.32
2024-02-24T15:57:53.821Z,14.75
2024-02-24T16:00:21.112Z,10.00
2024-02-24T16:02:48.319Z,18.45
2024-02-24T16:05:19.102Z,15.52
2024-02-24T16:07:46.471Z,10.27
2024-02-24T16:10:13.852Z,13.63
2024-02-24T16:12:41.015Z,11.20
2024-02-24T16:15:08.573Z,17.25
2024-02-24T16:17:36.401Z,14.73
2024-02-24T16:20:03.762Z,13.00
2024-02-24T16:22:30.994Z,14.10
2024-02-24T16:24:58.152Z,8.68
2024-02-24T16:27:25.367Z,10.90
2024-02-24T16:29:52.753Z,11.23
2024-02-24T16:32:20.054Z,10.75
2024-02-24T16:34:48.067Z,7.47
2024-02-24T16:37:15.292Z,7.60
2024-02-24T16:39:42.565Z,7.25
2024-02-24T16:42:09.699Z,9.27
2024-02-24T16:44:36.967Z,13.70
2024-02-24T16:47:04.332Z,12.68
2024-02-24T16:49:32.034Z,10.15
2024-02-24T16:51:59.383Z,13.70
2024-02-24T16:54:26.534Z,17.60
2024-02-24T16:56:53.753Z,14.07
2024-02-24T16:59:21.098Z,16.63
2024-02-24T17:01:48.349Z,17.00
2024-02-24T17:04:15.720Z,14.65
2024-02-24T17:06:43.179Z,16.60
2024-02-24T17:09:10.613Z,14.65
2024-02-24T17:11:38.027Z,15.52
2024-02-24T17:14:05.463Z,9.57
2024-02-24T17:16:32.580Z,12.45
2024-02-24T17:18:59.915Z,10.80
2024-02-24T17:21:29.335Z,13.65
2024-02-24T17:23:58.132Z,12.77
2024-02-24T17:26:25.995Z,11.35
2024-02-24T17:28:53.336Z,15.05
2024-02-24T17:31:20.502Z,12.40
2024-02-24T17:33:48.269Z,13.45
2024-02-24T17:36:16.235Z,10.68
2024-02-24T17:38:43.609Z,19.17
2024-02-24T17:41:10.945Z,12.13
2024-02-24T17:43:38.356Z,14.52
2024-02-24T17:46:05.671Z,17.92
2024-02-24T17:48:34.217Z,19.15
2024-02-24T17:51:01.820Z,12.20
2024-02-24T17:53:28.996Z,11.95
2024-02-24T17:55:56.226Z,12.82
2024-02-24T17:58:32.236Z,14.98
2024-02-24T18:03:34.930Z,21.05
2024-02-24T18:06:02.725Z,19.10
2024-02-24T18:08:29.996Z,16.10
2024-02-24T18:10:57.315Z,17.45
2024-02-24T18:13:24.478Z,27.52
2024-02-24T18:15:51.604Z,19.30
2024-02-24T18:18:19.336Z,20.50
2024-02-24T18:20:46.759Z,19.98
2024-02-24T18:23:13.916Z,32.45
2024-02-24T18:25:41.166Z,30.85
2024-02-24T18:28:09.393Z,27.15
2024-02-24T18:30:36.573Z,30.42
2024-02-24T18:33:04.081Z,23.50
2024-02-24T18:35:31.491Z,25.33
2024-02-24T18:37:58.618Z,35.60
2024-02-24T18:40:25.735Z,32.15
2024-02-24T18:42:52.929Z,33.90
2024-02-24T18:45:20.170Z,25.48
2024-02-24T18:47:47.565Z,28.38
2024-02-24T18:50:14.877Z,26.15
2024-02-24T18:52:42.005Z,26.67
2024-02-24T18:55:09.622Z,28.35
2024-02-24T18:57:36.729Z,18.90
2024-02-24T19:00:04.918Z,25.35
2024-02-24T19:02:33.211Z,24.95
2024-02-24T19:05:01.450Z,22.30
2024-02-24T19:07:28.825Z,27.63
2024-02-24T19:09:56.001Z,31.17
2024-02-24T19:12:23.447Z,19.67
2024-02-24T19:14:57.315Z,21.75
2024-02-24T19:17:26.072Z,24.65
2024-02-24T19:19:54.985Z,24.75
2024-02-24T19:22:22.272Z,30.80
2024-02-24T19:24:49.623Z,19.33
2024-02-24T19:27:16.769Z,25.33
2024-02-24T19:29:45.669Z,25.65
2024-02-24T19:32:13.502Z,22.23
2024-02-24T19:34:40.830Z,30.55
2024-02-24T19:37:10.888Z,22.23
2024-02-24T19:39:38.533Z,18.98
2024-02-24T19:42:06.093Z,19.45
2024-02-24T19:44:34.594Z,23.63
2024-02-24T19:47:06.005Z,18.05
2024-02-24T19:49:33.352Z,19.42
2024-02-24T19:52:00.620Z,19.48
2024-02-24T19:54:27.960Z,20.20
2024-02-24T19:56:55.254Z,20.33
2024-02-24T19:59:22.469Z,22.25
2024-02-24T20:01:51.245Z,14.00
2024-02-24T20:04:18.901Z,19.15
2024-02-24T20:06:46.215Z,21.30
2024-02-24T20:09:13.438Z,23.02
2024-02-24T20:11:40.618Z,13.73
2024-02-24T20:14:07.778Z,16.67
2024-02-24T20:16:35.024Z,21.63
2024-02-24T20:19:02.360Z,19.45
2024-02-24T20:21:29.754Z,22.40
2024-02-24T20:23:57.113Z,22.77
2024-02-24T20:26:24.309Z,13.07
2024-02-24T20:28:51.782Z,20.60
2024-02-24T20:31:19.449Z,11.77
2024-02-24T20:33:53.633Z,12.77
2024-02-24T20:36:28.102Z,13.45
2024-02-24T20:38:55.580Z,15.48
2024-02-24T20:41:25.433Z,14.02
2024-02-24T20:43:54.760Z,14.70
2024-02-24T20:46:22.204Z,13.02
2024-02-24T20:48:49.739Z,11.30
2024-02-24T20:51:17.042Z,17.52
2024-02-24T20:53:44.269Z,10.13
2024-02-24T20:56:11.572Z,13.35
2024-02-24T20:58:39.920Z,17.60
2024-02-24T21:01:07.595Z,10.38
2024-02-24T21:03:35.030Z,12.93
2024-02-24T21:06:02.476Z,11.27
2024-02-24T21:08:30.126Z,10.73
2024-02-24T21:10:57.648Z,14.15
2024-02-24T21:13:24.891Z,14.07
2024-02-24T21:15:52.000Z,9.43
2024-02-24T21:18:19.253Z,11.45
2024-02-24T21:20:46.526Z,14.23
2024-02-24T21:23:13.692Z,12.00
2024-02-24T21:25:40.858Z,13.88
2024-02-24T21:28:09.445Z,16.63
2024-02-24T21:30:37.369Z,15.77
2024-02-24T21:33:04.998Z,10.98
2024-02-24T21:35:32.395Z,10.77
2024-02-24T21:37:59.658Z,14.95
2024-02-24T21:40:27.082Z,11.27
2024-02-24T21:42:54.238Z,17.80
2024-02-24T21:45:21.475Z,11.52
2024-02-24T21:47:48.824Z,11.30
2024-02-24T21:50:16.390Z,14.02
2024-02-24T21:52:43.507Z,11.50
2024-02-24T21:55:10.669Z,9.45
2024-02-24T21:57:38.181Z,10.32
2024-02-24T22:00:05.987Z,9.77
2024-02-24T22:02:33.176Z,10.85
2024-02-24T22:05:00.408Z,13.63
2024-02-24T22:07:27.828Z,12.30
2024-02-24T22:09:54.967Z,15.75
2024-02-24T22:12:22.391Z,11.07
2024-02-24T22:14:49.647Z,8.70
2024-02-24T22:17:17.735Z,12.40
2024-02-24T22:19:45.039Z,10.38
2024-02-24T22:22:12.640Z,11.93
2024-02-24T22:24:39.863Z,11.10
2024-02-24T22:27:07.165Z,10.98
2024-02-24T22:29:34.658Z,13.48
2024-02-24T22:32:02.041Z,14.45
2024-02-24T22:34:29.235Z,14.93
2024-02-24T22:36:56.515Z,13.27
2024-02-24T22:39:23.687Z,13.27
2024-02-24T22:41:50.845Z,18.13
2024-02-24T22:44:18.107Z,13.18
2024-02-24T22:46:45.275Z,16.30
2024-02-24T22:49:12.607Z,9.77
2024-02-24T22:51:39.791Z,11.98
2024-02-24T22:54:07.081Z,9.93
2024-02-24T22:56:36.388Z,14.95
2024-02-24T22:59:03.760Z,13.00
2024-02-24T23:01:32.041Z,8.57
2024-02-24T23:04:00.179Z,15.20
2024-02-24T23:06:27.486Z,14.77
2024-02-24T23:08:54.809Z,11.60
2024-02-24T23:11:29.923Z,10.13
2024-02-24T23:14:04.459Z,13.57
2024-02-24T23:16:31.621Z,16.65
2024-02-24T23:19:00.238Z,13.57
2024-02-24T23:21:31.645Z,14.38
2024-02-24T23:23:59.205Z,22.00
2024-02-24T23:26:26.876Z,15.60
2024-02-24T23:28:54.425Z,23.17
2024-02-24T23:31:21.599Z,18.00
2024-02-24T23:33:49.015Z,25.85
2024-02-24T23:36:16.245Z,21.20
2024-02-24T23:38:43.581Z,20.83
2024-02-24T23:41:10.874Z,19.45
2024-02-24T23:43:38.064Z,17.05
2024-02-24T23:46:05.464Z,18.65
2024-02-24T23:48:43.194Z,18.65
2024-02-24T23:51:10.962Z,19.17
2024-02-24T23:53:39.989Z,21.80
2024-02-24T23:56:08.065Z,25.10
2024-02-24T23:58:35.369Z,21.13
